sensor_id;sensor_type;location;lat;lon;timestamp;P1;durP1;ratioP1;P2;durP2;ratioP2
22334;SDS011;11335;43.848;25.958;2023-04-16T00:01:18;8.38;;;3.90;;
22334;SDS011;11335;43.848;25.958;2023-04-16T00:04:03;6.47;;;3.78;;
22334;SDS011;11335;43.848;25.958;2023-04-16T00:06:49;11.73;;;3.97;;
22334;SDS011;11335;43.848;25.958;2023-04-16T00:09:35;8.48;;;3.80;;
22334;SDS011;11335;43.848;25.958;2023-04-16T00:12:20;7.72;;;3.83;;
22334;SDS011;11335;43.848;25.958;2023-04-16T00:15:06;6.95;;;3.75;;
22334;SDS011;11335;43.848;25.958;2023-04-16T00:17:52;10.88;;;3.78;;
22334;SDS011;11335;43.848;25.958;2023-04-16T00:20:37;9.68;;;4.10;;
22334;SDS011;11335;43.848;25.958;2023-04-16T00:23:23;10.23;;;4.13;;
22334;SDS011;11335;43.848;25.958;2023-04-16T00:26:09;10.10;;;4.32;;
22334;SDS011;11335;43.848;25.958;2023-04-16T00:28:55;7.43;;;3.90;;
22334;SDS011;11335;43.848;25.958;2023-04-16T00:31:41;10.48;;;4.20;;
22334;SDS011;11335;43.848;25.958;2023-04-16T00:34:26;10.18;;;4.10;;
22334;SDS011;11335;43.848;25.958;2023-04-16T00:37:12;12.57;;;4.60;;
22334;SDS011;11335;43.848;25.958;2023-04-16T00:39:57;7.20;;;4.07;;
22334;SDS011;11335;43.848;25.958;2023-04-16T00:42:44;11.15;;;3.72;;
22334;SDS011;11335;43.848;25.958;2023-04-16T00:45:29;7.88;;;3.95;;
22334;SDS011;11335;43.848;25.958;2023-04-16T00:48:15;7.53;;;4.00;;
22334;SDS011;11335;43.848;25.958;2023-04-16T00:51:02;10.00;;;4.30;;
22334;SDS011;11335;43.848;25.958;2023-04-16T00:53:48;9.55;;;4.10;;
22334;SDS011;11335;43.848;25.958;2023-04-16T00:56:35;6.43;;;4.05;;
22334;SDS011;11335;43.848;25.958;2023-04-16T00:59:21;11.13;;;4.43;;
22334;SDS011;11335;43.848;25.958;2023-04-16T01:02:06;10.45;;;3.83;;
22334;SDS011;11335;43.848;25.958;2023-04-16T01:04:52;7.45;;;4.22;;
22334;SDS011;11335;43.848;25.958;2023-04-16T01:07:37;9.32;;;4.15;;
22334;SDS011;11335;43.848;25.958;2023-04-16T01:10:24;8.50;;;4.00;;
22334;SDS011;11335;43.848;25.958;2023-04-16T01:13:10;7.20;;;4.60;;
22334;SDS011;11335;43.848;25.958;2023-04-16T01:15:55;8.07;;;4.28;;
22334;SDS011;11335;43.848;25.958;2023-04-16T01:18:41;7.63;;;4.32;;
22334;SDS011;11335;43.848;25.958;2023-04-16T01:21:27;8.18;;;4.45;;
22334;SDS011;11335;43.848;25.958;2023-04-16T01:24:12;7.47;;;3.95;;
22334;SDS011;11335;43.848;25.958;2023-04-16T01:26:58;8.43;;;4.10;;
22334;SDS011;11335;43.848;25.958;2023-04-16T01:29:44;10.63;;;4.43;;
22334;SDS011;11335;43.848;25.958;2023-04-16T01:32:30;8.98;;;4.28;;
22334;SDS011;11335;43.848;25.958;2023-04-16T01:35:16;7.10;;;4.15;;
22334;SDS011;11335;43.848;25.958;2023-04-16T01:38:04;6.53;;;4.05;;
22334;SDS011;11335;43.848;25.958;2023-04-16T01:40:54;9.57;;;4.00;;
22334;SDS011;11335;43.848;25.958;2023-04-16T01:43:40;6.55;;;4.10;;
22334;SDS011;11335;43.848;25.958;2023-04-16T01:46:27;6.05;;;4.15;;
22334;SDS011;11335;43.848;25.958;2023-04-16T01:49:13;7.80;;;4.18;;
22334;SDS011;11335;43.848;25.958;2023-04-16T01:52:00;9.07;;;4.40;;
22334;SDS011;11335;43.848;25.958;2023-04-16T01:54:45;9.45;;;4.28;;
22334;SDS011;11335;43.848;25.958;2023-04-16T01:57:31;8.93;;;4.43;;
22334;SDS011;11335;43.848;25.958;2023-04-16T02:00:16;8.85;;;4.25;;
22334;SDS011;11335;43.848;25.958;2023-04-16T02:03:02;10.25;;;4.68;;
22334;SDS011;11335;43.848;25.958;2023-04-16T02:05:48;11.02;;;4.75;;
22334;SDS011;11335;43.848;25.958;2023-04-16T02:08:33;10.32;;;4.45;;
22334;SDS011;11335;43.848;25.958;2023-04-16T02:11:19;9.35;;;5.00;;
22334;SDS011;11335;43.848;25.958;2023-04-16T02:14:05;10.15;;;5.20;;
22334;SDS011;11335;43.848;25.958;2023-04-16T02:16:50;8.65;;;5.05;;
22334;SDS011;11335;43.848;25.958;2023-04-16T02:19:36;13.05;;;5.35;;
22334;SDS011;11335;43.848;25.958;2023-04-16T02:22:21;9.70;;;5.35;;
22334;SDS011;11335;43.848;25.958;2023-04-16T02:25:07;10.35;;;5.00;;
22334;SDS011;11335;43.848;25.958;2023-04-16T02:27:53;10.48;;;4.97;;
22334;SDS011;11335;43.848;25.958;2023-04-16T02:30:39;12.60;;;5.88;;
22334;SDS011;11335;43.848;25.958;2023-04-16T02:33:24;11.13;;;5.38;;
22334;SDS011;11335;43.848;25.958;2023-04-16T02:36:11;10.20;;;5.40;;
22334;SDS011;11335;43.848;25.958;2023-04-16T02:38:57;13.68;;;5.25;;
22334;SDS011;11335;43.848;25.958;2023-04-16T02:41:43;11.20;;;5.20;;
22334;SDS011;11335;43.848;25.958;2023-04-16T02:44:28;14.50;;;5.80;;
22334;SDS011;11335;43.848;25.958;2023-04-16T02:47:14;12.50;;;5.72;;
22334;SDS011;11335;43.848;25.958;2023-04-16T02:49:59;12.00;;;5.80;;
22334;SDS011;11335;43.848;25.958;2023-04-16T02:52:45;9.85;;;5.20;;
22334;SDS011;11335;43.848;25.958;2023-04-16T02:55:31;8.32;;;5.10;;
22334;SDS011;11335;43.848;25.958;2023-04-16T02:58:16;9.65;;;5.38;;
22334;SDS011;11335;43.848;25.958;2023-04-16T03:01:02;11.10;;;5.38;;
22334;SDS011;11335;43.848;25.958;2023-04-16T03:03:48;10.50;;;5.85;;
22334;SDS011;11335;43.848;25.958;2023-04-16T03:06:33;9.73;;;5.95;;
22334;SDS011;11335;43.848;25.958;2023-04-16T03:09:19;11.48;;;5.88;;
22334;SDS011;11335;43.848;25.958;2023-04-16T03:12:04;14.52;;;5.88;;
22334;SDS011;11335;43.848;25.958;2023-04-16T03:14:50;15.50;;;6.07;;
22334;SDS011;11335;43.848;25.958;2023-04-16T03:17:36;12.40;;;5.40;;
22334;SDS011;11335;43.848;25.958;2023-04-16T03:20:22;9.77;;;5.55;;
22334;SDS011;11335;43.848;25.958;2023-04-16T03:23:08;9.63;;;5.00;;
22334;SDS011;11335;43.848;25.958;2023-04-16T03:25:53;13.95;;;5.53;;
22334;SDS011;11335;43.848;25.958;2023-04-16T03:28:39;14.43;;;5.93;;
22334;SDS011;11335;43.848;25.958;2023-04-16T03:31:24;12.88;;;5.55;;
22334;SDS011;11335;43.848;25.958;2023-04-16T03:34:10;10.90;;;5.53;;
22334;SDS011;11335;43.848;25.958;2023-04-16T03:36:56;14.15;;;6.03;;
22334;SDS011;11335;43.848;25.958;2023-04-16T03:39:42;12.20;;;6.10;;
22334;SDS011;11335;43.848;25.958;2023-04-16T03:42:27;19.02;;;6.80;;
22334;SDS011;11335;43.848;25.958;2023-04-16T03:45:13;13.13;;;5.82;;
22334;SDS011;11335;43.848;25.958;2023-04-16T03:47:59;11.75;;;5.82;;
22334;SDS011;11335;43.848;25.958;2023-04-16T03:50:45;11.63;;;6.70;;
22334;SDS011;11335;43.848;25.958;2023-04-16T03:53:31;14.20;;;6.30;;
22334;SDS011;11335;43.848;25.958;2023-04-16T03:56:17;9.98;;;6.38;;
22334;SDS011;11335;43.848;25.958;2023-04-16T03:59:03;13.05;;;6.38;;
22334;SDS011;11335;43.848;25.958;2023-04-16T04:01:48;16.50;;;7.20;;
22334;SDS011;11335;43.848;25.958;2023-04-16T04:04:34;12.23;;;7.45;;
22334;SDS011;11335;43.848;25.958;2023-04-16T04:07:19;16.65;;;9.80;;
22334;SDS011;11335;43.848;25.958;2023-04-16T04:10:05;15.68;;;10.20;;
22334;SDS011;11335;43.848;25.958;2023-04-16T04:12:51;22.27;;;10.77;;
22334;SDS011;11335;43.848;25.958;2023-04-16T04:15:36;20.42;;;10.50;;
22334;SDS011;11335;43.848;25.958;2023-04-16T04:18:22;14.00;;;8.18;;
22334;SDS011;11335;43.848;25.958;2023-04-16T04:21:08;10.77;;;6.95;;
22334;SDS011;11335;43.848;25.958;2023-04-16T04:23:54;13.55;;;7.15;;
22334;SDS011;11335;43.848;25.958;2023-04-16T04:26:39;15.75;;;6.80;;
22334;SDS011;11335;43.848;25.958;2023-04-16T04:29:25;12.77;;;6.07;;
22334;SDS011;11335;43.848;25.958;2023-04-16T04:32:10;13.25;;;6.32;;
22334;SDS011;11335;43.848;25.958;2023-04-16T04:34:56;16.75;;;7.15;;
22334;SDS011;11335;43.848;25.958;2023-04-16T04:37:42;10.55;;;6.65;;
22334;SDS011;11335;43.848;25.958;2023-04-16T04:40:27;12.93;;;6.30;;
22334;SDS011;11335;43.848;25.958;2023-04-16T04:43:13;13.70;;;6.28;;
22334;SDS011;11335;43.848;25.958;2023-04-16T04:45:59;17.38;;;7.70;;
22334;SDS011;11335;43.848;25.958;2023-04-16T04:48:44;18.73;;;8.40;;
22334;SDS011;11335;43.848;25.958;2023-04-16T04:51:30;14.68;;;7.05;;
22334;SDS011;11335;43.848;25.958;2023-04-16T04:54:16;11.93;;;6.50;;
22334;SDS011;11335;43.848;25.958;2023-04-16T04:57:01;14.85;;;7.22;;
22334;SDS011;11335;43.848;25.958;2023-04-16T04:59:47;14.80;;;8.05;;
22334;SDS011;11335;43.848;25.958;2023-04-16T05:02:32;15.13;;;6.95;;
22334;SDS011;11335;43.848;25.958;2023-04-16T05:05:18;11.73;;;7.38;;
22334;SDS011;11335;43.848;25.958;2023-04-16T05:08:04;11.88;;;8.05;;
22334;SDS011;11335;43.848;25.958;2023-04-16T05:10:49;16.80;;;8.07;;
22334;SDS011;11335;43.848;25.958;2023-04-16T05:13:35;13.30;;;7.88;;
22334;SDS011;11335;43.848;25.958;2023-04-16T05:16:21;12.68;;;6.80;;
22334;SDS011;11335;43.848;25.958;2023-04-16T05:19:06;23.55;;;8.85;;
22334;SDS011;11335;43.848;25.958;2023-04-16T05:21:52;14.57;;;7.07;;
22334;SDS011;11335;43.848;25.958;2023-04-16T05:24:38;15.07;;;7.55;;
22334;SDS011;11335;43.848;25.958;2023-04-16T05:27:24;17.55;;;9.50;;
22334;SDS011;11335;43.848;25.958;2023-04-16T05:30:09;29.02;;;11.10;;
22334;SDS011;11335;43.848;25.958;2023-04-16T05:32:55;23.42;;;9.95;;
22334;SDS011;11335;43.848;25.958;2023-04-16T05:35:40;14.93;;;7.03;;
22334;SDS011;11335;43.848;25.958;2023-04-16T05:38:26;15.13;;;6.05;;
22334;SDS011;11335;43.848;25.958;2023-04-16T05:41:12;14.25;;;6.10;;
22334;SDS011;11335;43.848;25.958;2023-04-16T05:43:57;16.73;;;6.05;;
22334;SDS011;11335;43.848;25.958;2023-04-16T05:46:43;14.80;;;6.03;;
22334;SDS011;11335;43.848;25.958;2023-04-16T05:49:28;20.27;;;5.90;;
22334;SDS011;11335;43.848;25.958;2023-04-16T05:52:14;11.40;;;5.93;;
22334;SDS011;11335;43.848;25.958;2023-04-16T05:54:59;15.35;;;6.47;;
22334;SDS011;11335;43.848;25.958;2023-04-16T05:57:45;15.95;;;5.88;;
22334;SDS011;11335;43.848;25.958;2023-04-16T06:00:31;13.35;;;5.10;;
22334;SDS011;11335;43.848;25.958;2023-04-16T06:03:17;13.75;;;5.35;;
22334;SDS011;11335;43.848;25.958;2023-04-16T06:06:02;12.98;;;5.55;;
22334;SDS011;11335;43.848;25.958;2023-04-16T06:08:48;16.77;;;5.90;;
22334;SDS011;11335;43.848;25.958;2023-04-16T06:11:34;13.93;;;5.72;;
22334;SDS011;11335;43.848;25.958;2023-04-16T06:14:19;14.05;;;5.82;;
22334;SDS011;11335;43.848;25.958;2023-04-16T06:17:05;15.50;;;6.38;;
22334;SDS011;11335;43.848;25.958;2023-04-16T06:19:50;12.80;;;6.03;;
22334;SDS011;11335;43.848;25.958;2023-04-16T06:22:36;12.68;;;5.65;;
22334;SDS011;11335;43.848;25.958;2023-04-16T06:25:22;15.23;;;5.78;;
22334;SDS011;11335;43.848;25.958;2023-04-16T06:28:07;9.82;;;5.90;;
22334;SDS011;11335;43.848;25.958;2023-04-16T06:30:53;11.55;;;5.85;;
22334;SDS011;11335;43.848;25.958;2023-04-16T06:33:38;12.93;;;5.70;;
22334;SDS011;11335;43.848;25.958;2023-04-16T06:36:24;11.82;;;5.53;;
22334;SDS011;11335;43.848;25.958;2023-04-16T06:39:11;18.02;;;6.05;;
22334;SDS011;11335;43.848;25.958;2023-04-16T06:41:57;13.23;;;5.38;;
22334;SDS011;11335;43.848;25.958;2023-04-16T06:44:42;13.98;;;6.10;;
22334;SDS011;11335;43.848;25.958;2023-04-16T06:47:28;18.10;;;6.43;;
22334;SDS011;11335;43.848;25.958;2023-04-16T06:50:14;15.30;;;5.90;;
22334;SDS011;11335;43.848;25.958;2023-04-16T06:52:59;17.10;;;5.80;;
22334;SDS011;11335;43.848;25.958;2023-04-16T06:55:45;16.42;;;6.18;;
22334;SDS011;11335;43.848;25.958;2023-04-16T06:58:30;14.82;;;6.20;;
22334;SDS011;11335;43.848;25.958;2023-04-16T07:01:17;16.48;;;6.43;;
22334;SDS011;11335;43.848;25.958;2023-04-16T07:04:03;16.52;;;6.50;;
22334;SDS011;11335;43.848;25.958;2023-04-16T07:06:48;13.40;;;6.47;;
22334;SDS011;11335;43.848;25.958;2023-04-16T07:09:34;15.25;;;5.85;;
22334;SDS011;11335;43.848;25.958;2023-04-16T07:12:19;15.85;;;6.35;;
22334;SDS011;11335;43.848;25.958;2023-04-16T07:15:05;12.65;;;6.45;;
22334;SDS011;11335;43.848;25.958;2023-04-16T07:17:51;17.48;;;6.85;;
22334;SDS011;11335;43.848;25.958;2023-04-16T07:20:37;14.50;;;5.90;;
22334;SDS011;11335;43.848;25.958;2023-04-16T07:23:22;16.80;;;5.63;;
22334;SDS011;11335;43.848;25.958;2023-04-16T07:26:08;14.15;;;5.82;;
22334;SDS011;11335;43.848;25.958;2023-04-16T07:28:53;15.98;;;6.10;;
22334;SDS011;11335;43.848;25.958;2023-04-16T07:31:39;16.30;;;6.00;;
22334;SDS011;11335;43.848;25.958;2023-04-16T07:34:25;22.05;;;5.85;;
22334;SDS011;11335;43.848;25.958;2023-04-16T07:37:10;26.08;;;7.00;;
22334;SDS011;11335;43.848;25.958;2023-04-16T07:39:56;20.75;;;6.28;;
22334;SDS011;11335;43.848;25.958;2023-04-16T07:42:42;14.70;;;6.10;;
22334;SDS011;11335;43.848;25.958;2023-04-16T07:45:27;81.65;;;9.70;;
22334;SDS011;11335;43.848;25.958;2023-04-16T07:48:13;15.48;;;5.85;;
22334;SDS011;11335;43.848;25.958;2023-04-16T07:50:58;15.57;;;6.00;;
22334;SDS011;11335;43.848;25.958;2023-04-16T07:53:44;17.13;;;6.07;;
22334;SDS011;11335;43.848;25.958;2023-04-16T07:56:30;15.88;;;6.03;;
22334;SDS011;11335;43.848;25.958;2023-04-16T07:59:15;13.73;;;5.65;;
22334;SDS011;11335;43.848;25.958;2023-04-16T08:02:01;18.95;;;5.80;;
22334;SDS011;11335;43.848;25.958;2023-04-16T08:04:47;19.13;;;5.50;;
22334;SDS011;11335;43.848;25.958;2023-04-16T08:07:32;30.58;;;6.70;;
22334;SDS011;11335;43.848;25.958;2023-04-16T08:10:18;16.27;;;6.22;;
22334;SDS011;11335;43.848;25.958;2023-04-16T08:13:03;17.63;;;5.75;;
22334;SDS011;11335;43.848;25.958;2023-04-16T08:15:49;11.77;;;5.43;;
22334;SDS011;11335;43.848;25.958;2023-04-16T08:18:35;16.42;;;5.28;;
22334;SDS011;11335;43.848;25.958;2023-04-16T08:21:21;16.05;;;5.85;;
22334;SDS011;11335;43.848;25.958;2023-04-16T08:24:07;13.55;;;5.50;;
22334;SDS011;11335;43.848;25.958;2023-04-16T08:26:52;14.13;;;5.80;;
22334;SDS011;11335;43.848;25.958;2023-04-16T08:29:38;15.75;;;5.72;;
22334;SDS011;11335;43.848;25.958;2023-04-16T08:32:24;18.05;;;5.68;;
22334;SDS011;11335;43.848;25.958;2023-04-16T08:35:10;16.48;;;6.43;;
22334;SDS011;11335;43.848;25.958;2023-04-16T08:37:56;13.68;;;4.65;;
22334;SDS011;11335;43.848;25.958;2023-04-16T08:40:42;12.75;;;4.88;;
22334;SDS011;11335;43.848;25.958;2023-04-16T08:43:32;15.73;;;5.63;;
22334;SDS011;11335;43.848;25.958;2023-04-16T08:46:18;14.32;;;5.63;;
22334;SDS011;11335;43.848;25.958;2023-04-16T08:49:07;13.55;;;4.82;;
22334;SDS011;11335;43.848;25.958;2023-04-16T08:51:53;16.52;;;5.50;;
22334;SDS011;11335;43.848;25.958;2023-04-16T08:54:45;14.00;;;4.70;;
22334;SDS011;11335;43.848;25.958;2023-04-16T08:57:36;17.13;;;6.15;;
22334;SDS011;11335;43.848;25.958;2023-04-16T09:00:23;18.20;;;5.93;;
22334;SDS011;11335;43.848;25.958;2023-04-16T09:03:08;13.63;;;4.65;;
22334;SDS011;11335;43.848;25.958;2023-04-16T09:05:55;23.15;;;8.25;;
22334;SDS011;11335;43.848;25.958;2023-04-16T09:08:45;17.88;;;6.65;;
22334;SDS011;11335;43.848;25.958;2023-04-16T09:11:30;13.57;;;5.60;;
22334;SDS011;11335;43.848;25.958;2023-04-16T09:14:16;22.33;;;5.88;;
22334;SDS011;11335;43.848;25.958;2023-04-16T09:17:02;9.00;;;4.45;;
22334;SDS011;11335;43.848;25.958;2023-04-16T09:19:48;14.18;;;4.53;;
22334;SDS011;11335;43.848;25.958;2023-04-16T09:22:34;10.63;;;4.60;;
22334;SDS011;11335;43.848;25.958;2023-04-16T09:25:20;18.67;;;6.00;;
22334;SDS011;11335;43.848;25.958;2023-04-16T09:28:07;13.52;;;4.85;;
22334;SDS011;11335;43.848;25.958;2023-04-16T09:31:06;13.88;;;4.50;;
22334;SDS011;11335;43.848;25.958;2023-04-16T09:34:10;9.75;;;4.63;;
22334;SDS011;11335;43.848;25.958;2023-04-16T09:36:55;11.25;;;4.25;;
22334;SDS011;11335;43.848;25.958;2023-04-16T09:39:59;13.07;;;4.72;;
22334;SDS011;11335;43.848;25.958;2023-04-16T09:42:44;13.48;;;4.80;;
22334;SDS011;11335;43.848;25.958;2023-04-16T09:45:30;11.07;;;4.03;;
22334;SDS011;11335;43.848;25.958;2023-04-16T09:48:36;15.32;;;4.80;;
22334;SDS011;11335;43.848;25.958;2023-04-16T09:51:21;11.95;;;4.75;;
22334;SDS011;11335;43.848;25.958;2023-04-16T09:54:07;14.88;;;4.53;;
22334;SDS011;11335;43.848;25.958;2023-04-16T09:56:54;15.30;;;4.88;;
22334;SDS011;11335;43.848;25.958;2023-04-16T09:59:40;13.82;;;4.03;;
22334;SDS011;11335;43.848;25.958;2023-04-16T10:02:26;19.25;;;4.53;;
22334;SDS011;11335;43.848;25.958;2023-04-16T10:05:13;10.43;;;3.70;;
22334;SDS011;11335;43.848;25.958;2023-04-16T10:08:01;10.77;;;4.00;;
22334;SDS011;11335;43.848;25.958;2023-04-16T10:10:46;12.02;;;4.35;;
22334;SDS011;11335;43.848;25.958;2023-04-16T10:13:32;8.55;;;4.07;;
22334;SDS011;11335;43.848;25.958;2023-04-16T10:16:18;14.48;;;4.55;;
22334;SDS011;11335;43.848;25.958;2023-04-16T10:19:03;12.93;;;4.40;;
22334;SDS011;11335;43.848;25.958;2023-04-16T10:21:49;12.63;;;4.35;;
22334;SDS011;11335;43.848;25.958;2023-04-16T10:24:34;9.73;;;3.80;;
22334;SDS011;11335;43.848;25.958;2023-04-16T10:27:20;10.57;;;4.15;;
22334;SDS011;11335;43.848;25.958;2023-04-16T10:30:06;13.63;;;4.63;;
22334;SDS011;11335;43.848;25.958;2023-04-16T10:32:52;10.98;;;4.30;;
22334;SDS011;11335;43.848;25.958;2023-04-16T10:35:38;15.38;;;4.15;;
22334;SDS011;11335;43.848;25.958;2023-04-16T10:38:25;9.63;;;4.03;;
22334;SDS011;11335;43.848;25.958;2023-04-16T10:41:10;12.07;;;4.40;;
22334;SDS011;11335;43.848;25.958;2023-04-16T10:44:02;14.73;;;4.07;;
22334;SDS011;11335;43.848;25.958;2023-04-16T10:46:50;13.95;;;4.55;;
22334;SDS011;11335;43.848;25.958;2023-04-16T10:49:35;9.65;;;4.45;;
22334;SDS011;11335;43.848;25.958;2023-04-16T10:52:21;14.68;;;4.78;;
22334;SDS011;11335;43.848;25.958;2023-04-16T10:55:14;10.23;;;4.60;;
22334;SDS011;11335;43.848;25.958;2023-04-16T10:58:00;13.23;;;5.35;;
22334;SDS011;11335;43.848;25.958;2023-04-16T11:00:49;12.77;;;5.00;;
22334;SDS011;11335;43.848;25.958;2023-04-16T11:03:35;17.00;;;5.68;;
22334;SDS011;11335;43.848;25.958;2023-04-16T11:06:24;15.05;;;6.07;;
22334;SDS011;11335;43.848;25.958;2023-04-16T11:09:40;10.75;;;5.68;;
22334;SDS011;11335;43.848;25.958;2023-04-16T11:15:08;15.18;;;5.53;;
22334;SDS011;11335;43.848;25.958;2023-04-16T11:17:54;10.05;;;4.75;;
22334;SDS011;11335;43.848;25.958;2023-04-16T11:20:40;14.35;;;5.43;;
22334;SDS011;11335;43.848;25.958;2023-04-16T11:23:26;9.70;;;4.30;;
22334;SDS011;11335;43.848;25.958;2023-04-16T11:26:27;9.20;;;4.68;;
22334;SDS011;11335;43.848;25.958;2023-04-16T11:29:13;13.32;;;4.32;;
22334;SDS011;11335;43.848;25.958;2023-04-16T11:31:59;13.48;;;4.47;;
22334;SDS011;11335;43.848;25.958;2023-04-16T11:34:45;15.57;;;4.85;;
22334;SDS011;11335;43.848;25.958;2023-04-16T11:37:35;11.10;;;4.20;;
22334;SDS011;11335;43.848;25.958;2023-04-16T11:40:21;11.07;;;4.72;;
22334;SDS011;11335;43.848;25.958;2023-04-16T11:43:14;12.95;;;4.35;;
22334;SDS011;11335;43.848;25.958;2023-04-16T11:46:00;15.65;;;4.97;;
22334;SDS011;11335;43.848;25.958;2023-04-16T11:48:50;14.32;;;4.40;;
22334;SDS011;11335;43.848;25.958;2023-04-16T11:51:46;8.70;;;4.07;;
22334;SDS011;11335;43.848;25.958;2023-04-16T11:54:31;11.00;;;4.28;;
22334;SDS011;11335;43.848;25.958;2023-04-16T11:57:29;8.45;;;3.58;;
22334;SDS011;11335;43.848;25.958;2023-04-16T12:00:15;10.15;;;3.85;;
22334;SDS011;11335;43.848;25.958;2023-04-16T12:03:01;8.98;;;3.72;;
22334;SDS011;11335;43.848;25.958;2023-04-16T12:05:46;5.28;;;3.70;;
22334;SDS011;11335;43.848;25.958;2023-04-16T12:08:32;8.10;;;3.80;;
22334;SDS011;11335;43.848;25.958;2023-04-16T12:11:18;11.07;;;3.30;;
22334;SDS011;11335;43.848;25.958;2023-04-16T12:14:07;6.85;;;3.10;;
22334;SDS011;11335;43.848;25.958;2023-04-16T12:16:53;5.75;;;3.20;;
22334;SDS011;11335;43.848;25.958;2023-04-16T12:19:47;9.02;;;3.38;;
22334;SDS011;11335;43.848;25.958;2023-04-16T12:22:33;7.28;;;3.13;;
22334;SDS011;11335;43.848;25.958;2023-04-16T12:25:19;7.07;;;2.90;;
22334;SDS011;11335;43.848;25.958;2023-04-16T12:28:04;5.97;;;3.22;;
22334;SDS011;11335;43.848;25.958;2023-04-16T12:30:50;6.05;;;3.22;;
22334;SDS011;11335;43.848;25.958;2023-04-16T12:33:36;7.15;;;3.15;;
22334;SDS011;11335;43.848;25.958;2023-04-16T12:36:21;8.50;;;3.10;;
22334;SDS011;11335;43.848;25.958;2023-04-16T12:39:09;10.05;;;3.45;;
22334;SDS011;11335;43.848;25.958;2023-04-16T12:41:55;5.20;;;2.83;;
22334;SDS011;11335;43.848;25.958;2023-04-16T12:44:43;7.82;;;2.92;;
22334;SDS011;11335;43.848;25.958;2023-04-16T12:47:29;6.47;;;3.20;;
22334;SDS011;11335;43.848;25.958;2023-04-16T12:50:15;7.53;;;2.97;;
22334;SDS011;11335;43.848;25.958;2023-04-16T12:53:00;8.02;;;3.15;;
22334;SDS011;11335;43.848;25.958;2023-04-16T12:55:46;5.97;;;2.95;;
22334;SDS011;11335;43.848;25.958;2023-04-16T12:58:32;9.85;;;3.75;;
22334;SDS011;11335;43.848;25.958;2023-04-16T13:01:18;6.80;;;2.90;;
22334;SDS011;11335;43.848;25.958;2023-04-16T13:04:04;9.15;;;3.22;;
22334;SDS011;11335;43.848;25.958;2023-04-16T13:06:50;9.32;;;3.10;;
22334;SDS011;11335;43.848;25.958;2023-04-16T13:09:35;6.22;;;3.08;;
22334;SDS011;11335;43.848;25.958;2023-04-16T13:12:21;7.53;;;2.72;;
22334;SDS011;11335;43.848;25.958;2023-04-16T13:15:07;4.82;;;2.28;;
22334;SDS011;11335;43.848;25.958;2023-04-16T13:17:53;4.22;;;1.98;;
22334;SDS011;11335;43.848;25.958;2023-04-16T13:20:38;4.85;;;2.00;;
22334;SDS011;11335;43.848;25.958;2023-04-16T13:23:24;5.57;;;2.40;;
22334;SDS011;11335;43.848;25.958;2023-04-16T13:26:09;4.65;;;2.10;;
22334;SDS011;11335;43.848;25.958;2023-04-16T13:28:57;11.30;;;4.13;;
22334;SDS011;11335;43.848;25.958;2023-04-16T13:31:42;12.43;;;4.10;;
22334;SDS011;11335;43.848;25.958;2023-04-16T13:34:28;12.98;;;4.65;;
22334;SDS011;11335;43.848;25.958;2023-04-16T13:37:14;18.80;;;5.32;;
22334;SDS011;11335;43.848;25.958;2023-04-16T13:39:59;15.00;;;4.60;;
22334;SDS011;11335;43.848;25.958;2023-04-16T13:42:45;5.95;;;3.60;;
22334;SDS011;11335;43.848;25.958;2023-04-16T13:45:31;9.30;;;3.92;;
22334;SDS011;11335;43.848;25.958;2023-04-16T13:48:16;11.43;;;4.22;;
22334;SDS011;11335;43.848;25.958;2023-04-16T13:51:02;12.55;;;4.93;;
22334;SDS011;11335;43.848;25.958;2023-04-16T13:53:47;14.25;;;4.85;;
22334;SDS011;11335;43.848;25.958;2023-04-16T13:56:33;13.32;;;4.68;;
22334;SDS011;11335;43.848;25.958;2023-04-16T13:59:19;15.02;;;4.57;;
22334;SDS011;11335;43.848;25.958;2023-04-16T14:02:05;7.60;;;4.03;;
22334;SDS011;11335;43.848;25.958;2023-04-16T14:04:50;12.45;;;4.30;;
22334;SDS011;11335;43.848;25.958;2023-04-16T14:07:36;12.93;;;4.55;;
22334;SDS011;11335;43.848;25.958;2023-04-16T14:10:21;31.08;;;19.30;;
22334;SDS011;11335;43.848;25.958;2023-04-16T14:13:07;10.27;;;5.18;;
22334;SDS011;11335;43.848;25.958;2023-04-16T14:15:53;5.45;;;3.40;;
22334;SDS011;11335;43.848;25.958;2023-04-16T14:18:39;11.70;;;4.40;;
22334;SDS011;11335;43.848;25.958;2023-04-16T14:21:26;8.35;;;4.45;;
22334;SDS011;11335;43.848;25.958;2023-04-16T14:24:12;9.68;;;4.25;;
22334;SDS011;11335;43.848;25.958;2023-04-16T14:26:57;6.05;;;4.03;;
22334;SDS011;11335;43.848;25.958;2023-04-16T14:29:43;8.63;;;4.80;;
22334;SDS011;11335;43.848;25.958;2023-04-16T14:32:30;10.80;;;4.68;;
22334;SDS011;11335;43.848;25.958;2023-04-16T14:35:16;8.02;;;4.70;;
22334;SDS011;11335;43.848;25.958;2023-04-16T14:38:02;7.65;;;4.97;;
22334;SDS011;11335;43.848;25.958;2023-04-16T14:40:47;12.70;;;5.05;;
22334;SDS011;11335;43.848;25.958;2023-04-16T14:43:33;13.23;;;5.57;;
22334;SDS011;11335;43.848;25.958;2023-04-16T14:46:20;9.43;;;4.57;;
22334;SDS011;11335;43.848;25.958;2023-04-16T14:49:05;11.25;;;4.60;;
22334;SDS011;11335;43.848;25.958;2023-04-16T14:51:51;12.88;;;5.10;;
22334;SDS011;11335;43.848;25.958;2023-04-16T14:54:36;28.42;;;5.53;;
22334;SDS011;11335;43.848;25.958;2023-04-16T14:57:22;7.47;;;4.47;;
22334;SDS011;11335;43.848;25.958;2023-04-16T15:00:08;8.98;;;4.80;;
22334;SDS011;11335;43.848;25.958;2023-04-16T15:02:54;10.88;;;4.63;;
22334;SDS011;11335;43.848;25.958;2023-04-16T15:05:40;14.20;;;4.57;;
22334;SDS011;11335;43.848;25.958;2023-04-16T15:08:26;16.15;;;4.97;;
22334;SDS011;11335;43.848;25.958;2023-04-16T15:11:11;12.77;;;5.05;;
22334;SDS011;11335;43.848;25.958;2023-04-16T15:13:57;15.02;;;5.13;;
22334;SDS011;11335;43.848;25.958;2023-04-16T15:16:43;9.90;;;5.05;;
22334;SDS011;11335;43.848;25.958;2023-04-16T15:19:32;11.00;;;4.90;;
22334;SDS011;11335;43.848;25.958;2023-04-16T15:22:17;9.05;;;4.63;;
22334;SDS011;11335;43.848;25.958;2023-04-16T15:25:04;11.32;;;4.47;;
22334;SDS011;11335;43.848;25.958;2023-04-16T15:27:50;11.65;;;4.97;;
22334;SDS011;11335;43.848;25.958;2023-04-16T15:30:36;11.30;;;4.85;;
22334;SDS011;11335;43.848;25.958;2023-04-16T15:33:23;11.57;;;5.20;;
22334;SDS011;11335;43.848;25.958;2023-04-16T15:36:08;9.73;;;4.75;;
22334;SDS011;11335;43.848;25.958;2023-04-16T15:38:55;9.50;;;4.40;;
22334;SDS011;11335;43.848;25.958;2023-04-16T15:41:41;10.55;;;4.57;;
22334;SDS011;11335;43.848;25.958;2023-04-16T15:44:26;7.97;;;4.70;;
22334;SDS011;11335;43.848;25.958;2023-04-16T15:47:12;11.00;;;5.05;;
22334;SDS011;11335;43.848;25.958;2023-04-16T15:49:58;6.68;;;4.30;;
22334;SDS011;11335;43.848;25.958;2023-04-16T15:52:43;10.63;;;5.00;;
22334;SDS011;11335;43.848;25.958;2023-04-16T15:55:29;10.38;;;4.65;;
22334;SDS011;11335;43.848;25.958;2023-04-16T15:58:15;13.60;;;5.15;;
22334;SDS011;11335;43.848;25.958;2023-04-16T16:01:00;5.45;;;4.43;;
22334;SDS011;11335;43.848;25.958;2023-04-16T16:03:46;7.93;;;5.07;;
22334;SDS011;11335;43.848;25.958;2023-04-16T16:06:32;10.10;;;4.85;;
22334;SDS011;11335;43.848;25.958;2023-04-16T16:09:17;8.93;;;5.53;;
22334;SDS011;11335;43.848;25.958;2023-04-16T16:12:09;15.30;;;6.60;;
22334;SDS011;11335;43.848;25.958;2023-04-16T16:14:55;15.55;;;6.43;;
22334;SDS011;11335;43.848;25.958;2023-04-16T16:17:41;17.65;;;6.93;;
22334;SDS011;11335;43.848;25.958;2023-04-16T16:20:26;17.67;;;7.18;;